sensor_id;sensor_type;location;lat;lon;timestamp;temperature;humidity
26081;DHT22;13991;51.174;4.438;2022-12-20T00:00:43;11.70;99.90
26081;DHT22;13991;51.174;4.438;2022-12-20T00:03:09;11.80;99.90
26081;DHT22;13991;51.174;4.438;2022-12-20T00:05:39;11.90;99.90
26081;DHT22;13991;51.174;4.438;2022-12-20T00:08:06;11.80;99.90
26081;DHT22;13991;51.174;4.438;2022-12-20T00:10:39;11.90;99.90
26081;DHT22;13991;51.174;4.438;2022-12-20T00:13:06;11.80;99.90
26081;DHT22;13991;51.174;4.438;2022-12-20T00:15:32;11.70;99.90
26081;DHT22;13991;51.174;4.438;2022-12-20T00:17:58;11.80;99.90
26081;DHT22;13991;51.174;4.438;2022-12-20T00:20:25;11.90;99.90
26081;DHT22;13991;51.174;4.438;2022-12-20T00:22:51;11.80;99.90
26081;DHT22;13991;51.174;4.438;2022-12-20T00:25:17;11.80;99.90
26081;DHT22;13991;51.174;4.438;2022-12-20T00:27:44;11.80;99.90
26081;DHT22;13991;51.174;4.438;2022-12-20T00:30:10;11.80;99.90
26081;DHT22;13991;51.174;4.438;2022-12-20T00:32:36;11.80;99.90
26081;DHT22;13991;51.174;4.438;2022-12-20T00:35:01;11.70;99.90
26081;DHT22;13991;51.174;4.438;2022-12-20T00:37:27;11.70;99.90
26081;DHT22;13991;51.174;4.438;2022-12-20T00:39:53;11.80;99.90
26081;DHT22;13991;51.174;4.438;2022-12-20T00:42:18;11.80;99.90
26081;DHT22;13991;51.174;4.438;2022-12-20T00:44:44;11.70;99.90
26081;DHT22;13991;51.174;4.438;2022-12-20T00:47:10;11.60;99.90
26081;DHT22;13991;51.174;4.438;2022-12-20T00:49:35;11.50;99.90
26081;DHT22;13991;51.174;4.438;2022-12-20T00:52:01;11.60;99.90
26081;DHT22;13991;51.174;4.438;2022-12-20T00:54:26;11.50;99.90
26081;DHT22;13991;51.174;4.438;2022-12-20T00:56:52;11.50;99.90
26081;DHT22;13991;51.174;4.438;2022-12-20T00:59:18;11.40;99.90
26081;DHT22;13991;51.174;4.438;2022-12-20T01:01:46;11.40;99.90
26081;DHT22;13991;51.174;4.438;2022-12-20T01:04:12;11.40;99.90
26081;DHT22;13991;51.174;4.438;2022-12-20T01:06:37;11.50;99.90
26081;DHT22;13991;51.174;4.438;2022-12-20T01:09:03;11.50;99.90
26081;DHT22;13991;51.174;4.438;2022-12-20T01:11:32;11.50;99.90
26081;DHT22;13991;51.174;4.438;2022-12-20T01:14:00;11.50;99.90
26081;DHT22;13991;51.174;4.438;2022-12-20T01:16:38;11.50;99.90
26081;DHT22;13991;51.174;4.438;2022-12-20T01:19:05;11.40;99.90
26081;DHT22;13991;51.174;4.438;2022-12-20T01:21:32;11.30;99.90
26081;DHT22;13991;51.174;4.438;2022-12-20T01:23:58;11.30;99.90
26081;DHT22;13991;51.174;4.438;2022-12-20T01:26:26;11.40;99.90
26081;DHT22;13991;51.174;4.438;2022-12-20T01:28:54;11.40;99.90
26081;DHT22;13991;51.174;4.438;2022-12-20T01:31:21;11.40;99.90
26081;DHT22;13991;51.174;4.438;2022-12-20T01:33:48;11.40;99.90
26081;DHT22;13991;51.174;4.438;2022-12-20T01:36:18;11.40;99.90
26081;DHT22;13991;51.174;4.438;2022-12-20T01:38:44;11.50;99.90
26081;DHT22;13991;51.174;4.438;2022-12-20T01:41:17;11.40;99.90
26081;DHT22;13991;51.174;4.438;2022-12-20T01:43:55;11.50;99.90
26081;DHT22;13991;51.174;4.438;2022-12-20T01:46:23;11.50;99.90
26081;DHT22;13991;51.174;4.438;2022-12-20T01:51:38;11.50;99.90
26081;DHT22;13991;51.174;4.438;2022-12-20T01:57:17;11.40;99.90
26081;DHT22;13991;51.174;4.438;2022-12-20T01:59:46;11.40;99.90
26081;DHT22;13991;51.174;4.438;2022-12-20T02:02:13;11.40;99.90
26081;DHT22;13991;51.174;4.438;2022-12-20T02:04:39;11.50;99.90
26081;DHT22;13991;51.174;4.438;2022-12-20T02:07:06;11.50;99.90
26081;DHT22;13991;51.174;4.438;2022-12-20T02:09:34;11.40;99.90
26081;DHT22;13991;51.174;4.438;2022-12-20T02:12:19;11.50;99.90
26081;DHT22;13991;51.174;4.438;2022-12-20T02:15:03;11.40;99.90
26081;DHT22;13991;51.174;4.438;2022-12-20T02:23:34;11.50;99.90
26081;DHT22;13991;51.174;4.438;2022-12-20T02:31:30;11.50;99.90
26081;DHT22;13991;51.174;4.438;2022-12-20T02:33:58;11.50;99.90
26081;DHT22;13991;51.174;4.438;2022-12-20T02:36:24;11.50;99.90
26081;DHT22;13991;51.174;4.438;2022-12-20T02:38:50;11.60;99.90
26081;DHT22;13991;51.174;4.438;2022-12-20T02:41:32;11.70;99.90
26081;DHT22;13991;51.174;4.438;2022-12-20T02:44:09;11.70;99.90
26081;DHT22;13991;51.174;4.438;2022-12-20T02:46:55;11.60;99.90
26081;DHT22;13991;51.174;4.438;2022-12-20T02:49:25;11.70;99.90
26081;DHT22;13991;51.174;4.438;2022-12-20T02:51:54;11.70;99.90
26081;DHT22;13991;51.174;4.438;2022-12-20T02:54:21;11.70;99.90
26081;DHT22;13991;51.174;4.438;2022-12-20T02:56:55;11.80;99.90
26081;DHT22;13991;51.174;4.438;2022-12-20T02:59:35;11.80;99.90
26081;DHT22;13991;51.174;4.438;2022-12-20T03:02:02;11.80;99.90
26081;DHT22;13991;51.174;4.438;2022-12-20T03:04:32;11.90;99.90
26081;DHT22;13991;51.174;4.438;2022-12-20T03:07:09;11.90;99.90
26081;DHT22;13991;51.174;4.438;2022-12-20T03:09:37;12.00;99.90
26081;DHT22;13991;51.174;4.438;2022-12-20T03:12:05;12.00;99.90
26081;DHT22;13991;51.174;4.438;2022-12-20T03:14:31;12.20;99.90
26081;DHT22;13991;51.174;4.438;2022-12-20T03:16:57;12.20;99.90
26081;DHT22;13991;51.174;4.438;2022-12-20T03:19:23;12.30;99.90
26081;DHT22;13991;51.174;4.438;2022-12-20T03:21:49;12.40;99.90
26081;DHT22;13991;51.174;4.438;2022-12-20T03:24:15;12.40;99.90
26081;DHT22;13991;51.174;4.438;2022-12-20T03:26:41;12.40;99.90
26081;DHT22;13991;51.174;4.438;2022-12-20T03:29:07;12.40;99.90
26081;DHT22;13991;51.174;4.438;2022-12-20T03:31:33;12.40;99.90
26081;DHT22;13991;51.174;4.438;2022-12-20T03:33:59;12.40;99.90
26081;DHT22;13991;51.174;4.438;2022-12-20T03:36:25;12.50;99.90
26081;DHT22;13991;51.174;4.438;2022-12-20T03:38:51;12.50;99.90
26081;DHT22;13991;51.174;4.438;2022-12-20T03:41:19;12.40;99.90
26081;DHT22;13991;51.174;4.438;2022-12-20T03:43:45;12.40;99.90
26081;DHT22;13991;51.174;4.438;2022-12-20T03:46:11;12.30;99.90
26081;DHT22;13991;51.174;4.438;2022-12-20T03:48:37;12.30;99.90
26081;DHT22;13991;51.174;4.438;2022-12-20T03:51:03;12.40;99.90
26081;DHT22;13991;51.174;4.438;2022-12-20T03:53:28;12.40;99.90
26081;DHT22;13991;51.174;4.438;2022-12-20T03:55:55;12.50;99.90
26081;DHT22;13991;51.174;4.438;2022-12-20T03:58:21;12.50;99.90
26081;DHT22;13991;51.174;4.438;2022-12-20T04:00:46;12.40;99.90
26081;DHT22;13991;51.174;4.438;2022-12-20T04:03:12;12.40;99.90
26081;DHT22;13991;51.174;4.438;2022-12-20T04:05:38;12.50;99.90
26081;DHT22;13991;51.174;4.438;2022-12-20T04:08:03;12.40;99.90
26081;DHT22;13991;51.174;4.438;2022-12-20T04:10:29;12.30;99.90
26081;DHT22;13991;51.174;4.438;2022-12-20T04:12:55;12.30;99.90
26081;DHT22;13991;51.174;4.438;2022-12-20T04:15:20;12.40;99.90
26081;DHT22;13991;51.174;4.438;2022-12-20T04:17:46;12.30;99.90
26081;DHT22;13991;51.174;4.438;2022-12-20T04:20:15;12.20;99.90
26081;DHT22;13991;51.174;4.438;2022-12-20T04:22:48;12.10;99.90
26081;DHT22;13991;51.174;4.438;2022-12-20T04:25:16;12.20;99.90
26081;DHT22;13991;51.174;4.438;2022-12-20T04:27:42;12.20;99.90
26081;DHT22;13991;51.174;4.438;2022-12-20T04:30:08;12.30;99.90
26081;DHT22;13991;51.174;4.438;2022-12-20T04:32:34;12.30;99.90
26081;DHT22;13991;51.174;4.438;2022-12-20T04:35:00;12.30;99.90
26081;DHT22;13991;51.174;4.438;2022-12-20T04:37:26;12.30;99.90
26081;DHT22;13991;51.174;4.438;2022-12-20T04:39:52;12.30;99.90
26081;DHT22;13991;51.174;4.438;2022-12-20T04:42:17;12.30;99.90
26081;DHT22;13991;51.174;4.438;2022-12-20T04:44:43;12.30;99.90
26081;DHT22;13991;51.174;4.438;2022-12-20T04:47:09;12.30;99.90
26081;DHT22;13991;51.174;4.438;2022-12-20T04:49:35;12.20;99.90
26081;DHT22;13991;51.174;4.438;2022-12-20T04:52:01;12.20;99.90
26081;DHT22;13991;51.174;4.438;2022-12-20T04:54:46;12.30;99.90
26081;DHT22;13991;51.174;4.438;2022-12-20T04:57:13;12.30;99.90
26081;DHT22;13991;51.174;4.438;2022-12-20T04:59:39;12.30;99.90
26081;DHT22;13991;51.174;4.438;2022-12-20T05:02:05;12.30;99.90
26081;DHT22;13991;51.174;4.438;2022-12-20T05:04:31;12.30;99.90
26081;DHT22;13991;51.174;4.438;2022-12-20T05:06:56;12.20;99.90
26081;DHT22;13991;51.174;4.438;2022-12-20T05:09:22;12.40;99.90
26081;DHT22;13991;51.174;4.438;2022-12-20T05:11:48;12.40;99.90
26081;DHT22;13991;51.174;4.438;2022-12-20T05:14:14;12.30;99.90
26081;DHT22;13991;51.174;4.438;2022-12-20T05:16:40;12.20;99.90
26081;DHT22;13991;51.174;4.438;2022-12-20T05:19:05;12.30;99.90
26081;DHT22;13991;51.174;4.438;2022-12-20T05:21:31;12.20;99.90
26081;DHT22;13991;51.174;4.438;2022-12-20T05:24:15;12.20;99.90
26081;DHT22;13991;51.174;4.438;2022-12-20T05:27:00;12.20;99.90
26081;DHT22;13991;51.174;4.438;2022-12-20T05:29:25;12.10;99.90
26081;DHT22;13991;51.174;4.438;2022-12-20T05:31:51;12.20;99.90
26081;DHT22;13991;51.174;4.438;2022-12-20T05:34:17;12.20;99.90
26081;DHT22;13991;51.174;4.438;2022-12-20T05:36:43;12.20;99.90
26081;DHT22;13991;51.174;4.438;2022-12-20T05:39:08;12.10;99.90
26081;DHT22;13991;51.174;4.438;2022-12-20T05:41:36;12.00;99.90
26081;DHT22;13991;51.174;4.438;2022-12-20T05:44:05;12.00;99.90
26081;DHT22;13991;51.174;4.438;2022-12-20T05:46:31;12.00;99.90
26081;DHT22;13991;51.174;4.438;2022-12-20T05:48:57;12.00;99.90
26081;DHT22;13991;51.174;4.438;2022-12-20T05:51:23;12.10;99.90
26081;DHT22;13991;51.174;4.438;2022-12-20T05:53:49;12.10;99.90
26081;DHT22;13991;51.174;4.438;2022-12-20T05:56:15;12.00;99.90
26081;DHT22;13991;51.174;4.438;2022-12-20T05:58:40;12.00;99.90
26081;DHT22;13991;51.174;4.438;2022-12-20T06:01:07;12.00;99.90
26081;DHT22;13991;51.174;4.438;2022-12-20T06:03:33;12.00;99.90
26081;DHT22;13991;51.174;4.438;2022-12-20T06:05:59;12.00;99.90
26081;DHT22;13991;51.174;4.438;2022-12-20T06:08:25;12.10;99.90
26081;DHT22;13991;51.174;4.438;2022-12-20T06:10:51;12.00;99.90
26081;DHT22;13991;51.174;4.438;2022-12-20T06:13:17;12.00;99.90
26081;DHT22;13991;51.174;4.438;2022-12-20T06:15:43;12.00;99.90
26081;DHT22;13991;51.174;4.438;2022-12-20T06:18:09;12.00;99.90
26081;DHT22;13991;51.174;4.438;2022-12-20T06:20:36;12.00;99.90
26081;DHT22;13991;51.174;4.438;2022-12-20T06:23:02;11.90;99.90
26081;DHT22;13991;51.174;4.438;2022-12-20T06:25:29;11.90;99.90
26081;DHT22;13991;51.174;4.438;2022-12-20T06:27:54;11.90;99.90
26081;DHT22;13991;51.174;4.438;2022-12-20T06:30:20;11.90;99.90
26081;DHT22;13991;51.174;4.438;2022-12-20T06:32:46;12.00;99.90
26081;DHT22;13991;51.174;4.438;2022-12-20T06:35:13;12.00;99.90
26081;DHT22;13991;51.174;4.438;2022-12-20T06:37:39;12.10;99.90
26081;DHT22;13991;51.174;4.438;2022-12-20T06:40:07;12.10;99.90
26081;DHT22;13991;51.174;4.438;2022-12-20T06:42:33;12.20;99.90
26081;DHT22;13991;51.174;4.438;2022-12-20T06:44:58;12.20;99.90
26081;DHT22;13991;51.174;4.438;2022-12-20T06:47:24;12.20;99.90
26081;DHT22;13991;51.174;4.438;2022-12-20T06:49:49;12.20;99.90
26081;DHT22;13991;51.174;4.438;2022-12-20T06:52:15;12.20;99.90
26081;DHT22;13991;51.174;4.438;2022-12-20T06:54:41;12.20;99.90
26081;DHT22;13991;51.174;4.438;2022-12-20T06:57:06;12.30;99.90
26081;DHT22;13991;51.174;4.438;2022-12-20T06:59:32;12.40;99.90
26081;DHT22;13991;51.174;4.438;2022-12-20T07:01:58;12.30;99.90
26081;DHT22;13991;51.174;4.438;2022-12-20T07:04:23;12.50;99.90
26081;DHT22;13991;51.174;4.438;2022-12-20T07:06:49;12.50;99.90
26081;DHT22;13991;51.174;4.438;2022-12-20T07:09:15;12.60;99.90
26081;DHT22;13991;51.174;4.438;2022-12-20T07:11:41;12.70;99.90
26081;DHT22;13991;51.174;4.438;2022-12-20T07:14:07;12.50;99.90
26081;DHT22;13991;51.174;4.438;2022-12-20T07:16:34;12.40;99.90
26081;DHT22;13991;51.174;4.438;2022-12-20T07:19:00;12.40;99.90
26081;DHT22;13991;51.174;4.438;2022-12-20T07:21:26;12.40;99.90
26081;DHT22;13991;51.174;4.438;2022-12-20T07:23:54;12.30;99.90
26081;DHT22;13991;51.174;4.438;2022-12-20T07:26:20;12.30;99.90
26081;DHT22;13991;51.174;4.438;2022-12-20T07:28:45;12.20;99.90
26081;DHT22;13991;51.174;4.438;2022-12-20T07:31:11;12.10;99.90
26081;DHT22;13991;51.174;4.438;2022-12-20T07:33:37;12.10;99.90
26081;DHT22;13991;51.174;4.438;2022-12-20T07:36:09;12.10;99.90
26081;DHT22;13991;51.174;4.438;2022-12-20T07:38:36;12.00;99.90
26081;DHT22;13991;51.174;4.438;2022-12-20T07:41:22;12.00;99.90
26081;DHT22;13991;51.174;4.438;2022-12-20T07:43:49;12.00;99.90
26081;DHT22;13991;51.174;4.438;2022-12-20T07:46:15;12.10;99.90
26081;DHT22;13991;51.174;4.438;2022-12-20T07:48:42;12.20;99.90
26081;DHT22;13991;51.174;4.438;2022-12-20T07:51:13;12.00;99.90
26081;DHT22;13991;51.174;4.438;2022-12-20T07:53:42;11.80;99.90
26081;DHT22;13991;51.174;4.438;2022-12-20T07:56:10;11.60;99.90
26081;DHT22;13991;51.174;4.438;2022-12-20T07:58:38;11.60;99.90
26081;DHT22;13991;51.174;4.438;2022-12-20T08:01:05;11.60;99.90
26081;DHT22;13991;51.174;4.438;2022-12-20T08:03:36;11.70;99.90
26081;DHT22;13991;51.174;4.438;2022-12-20T08:06:03;11.60;99.90
26081;DHT22;13991;51.174;4.438;2022-12-20T08:08:35;11.60;99.90
26081;DHT22;13991;51.174;4.438;2022-12-20T08:11:03;11.60;99.90
26081;DHT22;13991;51.174;4.438;2022-12-20T08:13:31;11.50;99.90
26081;DHT22;13991;51.174;4.438;2022-12-20T08:15:58;11.50;99.90
26081;DHT22;13991;51.174;4.438;2022-12-20T08:18:24;11.50;99.90
26081;DHT22;13991;51.174;4.438;2022-12-20T08:20:50;11.60;99.90
26081;DHT22;13991;51.174;4.438;2022-12-20T08:23:16;11.50;99.90
26081;DHT22;13991;51.174;4.438;2022-12-20T08:25:41;11.50;99.90
26081;DHT22;13991;51.174;4.438;2022-12-20T08:28:08;11.40;99.90
26081;DHT22;13991;51.174;4.438;2022-12-20T08:30:33;11.40;99.90
26081;DHT22;13991;51.174;4.438;2022-12-20T08:32:59;11.50;99.90
26081;DHT22;13991;51.174;4.438;2022-12-20T08:35:24;11.50;99.90
26081;DHT22;13991;51.174;4.438;2022-12-20T08:37:50;11.50;99.90
26081;DHT22;13991;51.174;4.438;2022-12-20T08:40:17;11.40;99.90
26081;DHT22;13991;51.174;4.438;2022-12-20T08:42:43;11.30;99.90
26081;DHT22;13991;51.174;4.438;2022-12-20T08:45:09;11.40;99.90
26081;DHT22;13991;51.174;4.438;2022-12-20T08:47:35;11.40;99.90
26081;DHT22;13991;51.174;4.438;2022-12-20T08:50:01;11.50;99.90
26081;DHT22;13991;51.174;4.438;2022-12-20T08:52:28;11.40;99.90
26081;DHT22;13991;51.174;4.438;2022-12-20T08:54:53;11.60;99.90
26081;DHT22;13991;51.174;4.438;2022-12-20T08:57:19;11.60;99.90
26081;DHT22;13991;51.174;4.438;2022-12-20T08:59:45;11.50;99.90
26081;DHT22;13991;51.174;4.438;2022-12-20T09:02:10;11.50;99.90
26081;DHT22;13991;51.174;4.438;2022-12-20T09:04:36;11.50;99.90
26081;DHT22;13991;51.174;4.438;2022-12-20T09:07:02;11.40;99.90
26081;DHT22;13991;51.174;4.438;2022-12-20T09:09:27;11.40;99.90
26081;DHT22;13991;51.174;4.438;2022-12-20T09:11:53;11.50;99.90
26081;DHT22;13991;51.174;4.438;2022-12-20T09:14:19;11.60;99.90
26081;DHT22;13991;51.174;4.438;2022-12-20T09:16:44;11.70;99.90
26081;DHT22;13991;51.174;4.438;2022-12-20T09:19:12;11.50;99.90
26081;DHT22;13991;51.174;4.438;2022-12-20T09:21:38;11.50;99.90
26081;DHT22;13991;51.174;4.438;2022-12-20T09:24:04;11.50;99.90
26081;DHT22;13991;51.174;4.438;2022-12-20T09:26:30;11.60;99.90
26081;DHT22;13991;51.174;4.438;2022-12-20T09:28:57;11.80;99.90
26081;DHT22;13991;51.174;4.438;2022-12-20T09:31:24;11.80;99.90
26081;DHT22;13991;51.174;4.438;2022-12-20T09:33:55;11.70;99.90
26081;DHT22;13991;51.174;4.438;2022-12-20T09:36:23;11.60;99.90
26081;DHT22;13991;51.174;4.438;2022-12-20T09:38:49;11.70;99.90
26081;DHT22;13991;51.174;4.438;2022-12-20T09:41:36;11.70;99.90
26081;DHT22;13991;51.174;4.438;2022-12-20T09:44:17;11.70;99.90
26081;DHT22;13991;51.174;4.438;2022-12-20T09:46:48;11.70;99.90
26081;DHT22;13991;51.174;4.438;2022-12-20T09:49:17;11.70;99.90
26081;DHT22;13991;51.174;4.438;2022-12-20T09:52:33;11.80;99.90
26081;DHT22;13991;51.174;4.438;2022-12-20T09:54:49;11.80;99.90
26081;DHT22;13991;51.174;4.438;2022-12-20T10:00:15;11.70;99.90
26081;DHT22;13991;51.174;4.438;2022-12-20T10:02:42;11.70;99.90
26081;DHT22;13991;51.174;4.438;2022-12-20T10:05:17;11.90;99.90
26081;DHT22;13991;51.174;4.438;2022-12-20T10:07:54;11.70;99.90
26081;DHT22;13991;51.174;4.438;2022-12-20T10:15:45;11.80;99.90
26081;DHT22;13991;51.174;4.438;2022-12-20T10:24:03;11.80;99.90
26081;DHT22;13991;51.174;4.438;2022-12-20T10:26:32;11.70;99.90
26081;DHT22;13991;51.174;4.438;2022-12-20T10:28:58;11.80;99.90
26081;DHT22;13991;51.174;4.438;2022-12-20T10:31:23;11.80;99.90
26081;DHT22;13991;51.174;4.438;2022-12-20T10:33:50;11.90;99.90
26081;DHT22;13991;51.174;4.438;2022-12-20T10:36:28;11.90;99.90
26081;DHT22;13991;51.174;4.438;2022-12-20T10:38:57;11.80;99.90
26081;DHT22;13991;51.174;4.438;2022-12-20T10:41:26;11.60;99.90
26081;DHT22;13991;51.174;4.438;2022-12-20T10:51:55;12.00;99.90
26081;DHT22;13991;51.174;4.438;2022-12-20T10:54:30;11.80;99.90
26081;DHT22;13991;51.174;4.438;2022-12-20T10:56:59;11.80;99.90
26081;DHT22;13991;51.174;4.438;2022-12-20T10:59:32;11.90;99.90
26081;DHT22;13991;51.174;4.438;2022-12-20T11:01:59;11.80;99.90
26081;DHT22;13991;51.174;4.438;2022-12-20T11:04:34;11.80;99.90
26081;DHT22;13991;51.174;4.438;2022-12-20T11:07:03;11.90;99.90
26081;DHT22;13991;51.174;4.438;2022-12-20T11:09:36;11.90;99.90
26081;DHT22;13991;51.174;4.438;2022-12-20T11:12:05;11.90;99.90
26081;DHT22;13991;51.174;4.438;2022-12-20T11:14:33;11.90;99.90
26081;DHT22;13991;51.174;4.438;2022-12-20T11:17:27;11.80;99.90
26081;DHT22;13991;51.174;4.438;2022-12-20T11:20:21;11.70;99.90
26081;DHT22;13991;51.174;4.438;2022-12-20T11:37:17;11.80;99.90
26081;DHT22;13991;51.174;4.438;2022-12-20T11:45:20;11.90;99.90
26081;DHT22;13991;51.174;4.438;2022-12-20T11:53:19;11.90;99.90
26081;DHT22;13991;51.174;4.438;2022-12-20T11:55:47;11.90;99.90
26081;DHT22;13991;51.174;4.438;2022-12-20T11:58:19;11.80;99.90
26081;DHT22;13991;51.174;4.438;2022-12-20T12:01:07;11.90;99.90
26081;DHT22;13991;51.174;4.438;2022-12-20T12:03:36;11.90;99.90
26081;DHT22;13991;51.174;4.438;2022-12-20T12:06:19;12.00;99.90
26081;DHT22;13991;51.174;4.438;2022-12-20T12:09:13;11.90;99.90
26081;DHT22;13991;51.174;4.438;2022-12-20T12:11:46;11.70;99.90
26081;DHT22;13991;51.174;4.438;2022-12-20T12:14:21;11.70;99.90
26081;DHT22;13991;51.174;4.438;2022-12-20T12:16:53;11.90;99.90
26081;DHT22;13991;51.174;4.438;2022-12-20T12:19:25;11.80;99.90
26081;DHT22;13991;51.174;4.438;2022-12-20T12:22:00;11.90;99.90
26081;DHT22;13991;51.174;4.438;2022-12-20T12:24:40;11.90;99.90
26081;DHT22;13991;51.174;4.438;2022-12-20T12:27:22;11.90;99.90
26081;DHT22;13991;51.174;4.438;2022-12-20T12:29:48;11.90;99.90
26081;DHT22;13991;51.174;4.438;2022-12-20T12:45:47;12.10;99.90
26081;DHT22;13991;51.174;4.438;2022-12-20T12:48:21;12.00;99.90
26081;DHT22;13991;51.174;4.438;2022-12-20T12:50:50;11.90;99.90
26081;DHT22;13991;51.174;4.438;2022-12-20T12:55:47;12.40;99.90
26081;DHT22;13991;51.174;4.438;2022-12-20T13:00:59;12.20;99.90
26081;DHT22;13991;51.174;4.438;2022-12-20T13:11:40;12.20;99.90
26081;DHT22;13991;51.174;4.438;2022-12-20T13:16:51;12.10;99.90
26081;DHT22;13991;51.174;4.438;2022-12-20T13:19:28;11.90;99.90
26081;DHT22;13991;51.174;4.438;2022-12-20T13:24:59;11.90;99.90
26081;DHT22;13991;51.174;4.438;2022-12-20T13:40:59;11.90;99.90
26081;DHT22;13991;51.174;4.438;2022-12-20T13:43:29;11.80;99.90
26081;DHT22;13991;51.174;4.438;2022-12-20T13:46:11;11.70;99.90
26081;DHT22;13991;51.174;4.438;2022-12-20T13:48:38;11.70;99.90
26081;DHT22;13991;51.174;4.438;2022-12-20T13:51:06;11.70;99.90
26081;DHT22;13991;51.174;4.438;2022-12-20T13:53:33;11.80;99.90
26081;DHT22;13991;51.174;4.438;2022-12-20T13:58:57;11.90;99.90
26081;DHT22;13991;51.174;4.438;2022-12-20T14:01:24;11.80;99.90
26081;DHT22;13991;51.174;4.438;2022-12-20T14:03:51;11.70;99.90
26081;DHT22;13991;51.174;4.438;2022-12-20T14:06:19;11.70;99.90
26081;DHT22;13991;51.174;4.438;2022-12-20T14:08:49;11.70;99.90
26081;DHT22;13991;51.174;4.438;2022-12-20T14:11:23;11.70;99.90
26081;DHT22;13991;51.174;4.438;2022-12-20T14:14:01;11.70;99.90
26081;DHT22;13991;51.174;4.438;2022-12-20T14:16:32;11.60;99.90
26081;DHT22;13991;51.174;4.438;2022-12-20T14:19:03;11.70;99.90
26081;DHT22;13991;51.174;4.438;2022-12-20T14:21:29;11.70;99.90
26081;DHT22;13991;51.174;4.438;2022-12-20T14:23:57;11.60;99.90
26081;DHT22;13991;51.174;4.438;2022-12-20T14:26:27;11.40;99.90
26081;DHT22;13991;51.174;4.438;2022-12-20T14:28:55;11.50;99.90
26081;DHT22;13991;51.174;4.438;2022-12-20T14:31:40;11.40;99.90
26081;DHT22;13991;51.174;4.438;2022-12-20T14:36:41;11.50;99.90
26081;DHT22;13991;51.174;4.438;2022-12-20T14:39:32;11.50;99.90
26081;DHT22;13991;51.174;4.438;2022-12-20T14:42:00;11.40;99.90
26081;DHT22;13991;51.174;4.438;2022-12-20T14:44:28;11.50;99.90
26081;DHT22;13991;51.174;4.438;2022-12-20T14:46:59;11.40;99.90
26081;DHT22;13991;51.174;4.438;2022-12-20T14:49:33;11.50;99.90
26081;DHT22;13991;51.174;4.438;2022-12-20T14:52:41;11.50;99.90
26081;DHT22;13991;51.174;4.438;2022-12-20T14:55:20;11.50;99.90
26081;DHT22;13991;51.174;4.438;2022-12-20T14:57:56;11.70;99.90
26081;DHT22;13991;51.174;4.438;2022-12-20T15:00:28;11.70;99.90
26081;DHT22;13991;51.174;4.438;2022-12-20T15:08:29;11.70;99.90
26081;DHT22;13991;51.174;4.438;2022-12-20T15:13:44;11.70;99.90
26081;DHT22;13991;51.174;4.438;2022-12-20T15:16:19;11.60;99.90
26081;DHT22;13991;51.174;4.438;2022-12-20T15:18:57;11.50;99.90
26081;DHT22;13991;51.174;4.438;2022-12-20T15:21:34;11.60;99.90
26081;DHT22;13991;51.174;4.438;2022-12-20T15:24:03;11.70;99.90
26081;DHT22;13991;51.174;4.438;2022-12-20T15:26:33;11.80;99.90
26081;DHT22;13991;51.174;4.438;2022-12-20T15:28:59;11.80;99.90
26081;DHT22;13991;51.174;4.438;2022-12-20T15:31:26;11.70;99.90
26081;DHT22;13991;51.174;4.438;2022-12-20T15:33:52;11.70;99.90
26081;DHT22;13991;51.174;4.438;2022-12-20T15:36:24;11.70;99.90
26081;DHT22;13991;51.174;4.438;2022-12-20T15:38:51;11.70;99.90
26081;DHT22;13991;51.174;4.438;2022-12-20T15:41:26;11.60;99.90
26081;DHT22;13991;51.174;4.438;2022-12-20T15:43:58;11.60;99.90
26081;DHT22;13991;51.174;4.438;2022-12-20T15:46:25;11.70;99.90
26081;DHT22;13991;51.174;4.438;2022-12-20T15:48:51;11.80;99.90
26081;DHT22;13991;51.174;4.438;2022-12-20T15:51:26;11.70;99.90
26081;DHT22;13991;51.174;4.438;2022-12-20T15:53:53;11.60;99.90
26081;DHT22;13991;51.174;4.438;2022-12-20T15:56:20;11.60;99.90
26081;DHT22;13991;51.174;4.438;2022-12-20T15:58:47;11.50;99.90
26081;DHT22;13991;51.174;4.438;2022-12-20T16:01:17;11.60;99.90
26081;DHT22;13991;51.174;4.438;2022-12-20T16:03:44;11.60;99.90
26081;DHT22;13991;51.174;4.438;2022-12-20T16:06:10;11.60;99.90
26081;DHT22;13991;51.174;4.438;2022-12-20T16:08:39;11.70;99.90
26081;DHT22;13991;51.174;4.438;2022-12-20T16:11:06;11.70;99.90
26081;DHT22;13991;51.174;4.438;2022-12-20T16:13:37;11.70;99.90
26081;DHT22;13991;51.174;4.438;2022-12-20T16:16:03;11.70;99.90
26081;DHT22;13991;51.174;4.438;2022-12-20T16:18:31;11.50;99.90
26081;DHT22;13991;51.174;4.438;2022-12-20T16:20:56;11.60;99.90
26081;DHT22;13991;51.174;4.438;2022-12-20T16:23:22;11.60;99.90
26081;DHT22;13991;51.174;4.438;2022-12-20T16:25:48;11.60;99.90
26081;DHT22;13991;51.174;4.438;2022-12-20T16:28:15;11.60;99.90
26081;DHT22;13991;51.174;4.438;2022-12-20T16:30:41;11.60;99.90
26081;DHT22;13991;51.174;4.438;2022-12-20T16:33:18;11.70;99.90
26081;DHT22;13991;51.174;4.438;2022-12-20T16:35:44;11.70;99.90
26081;DHT22;13991;51.174;4.438;2022-12-20T16:38:09;11.60;99.90
26081;DHT22;13991;51.174;4.438;2022-12-20T16:40:35;11.70;99.90
26081;DHT22;13991;51.174;4.438;2022-12-20T16:43:01;11.60;99.90
26081;DHT22;13991;51.174;4.438;2022-12-20T16:45:28;11.70;99.90
26081;DHT22;13991;51.174;4.438;2022-12-20T16:47:55;11.70;99.90
26081;DHT22;13991;51.174;4.438;2022-12-20T16:50:23;11.60;99.90
26081;DHT22;13991;51.174;4.438;2022-12-20T16:52:49;11.60;99.90
26081;DHT22;13991;51.174;4.438;2022-12-20T16:55:22;11.70;99.90
26081;DHT22;13991;51.174;4.438;2022-12-20T16:57:48;11.70;99.90
26081;DHT22;13991;51.174;4.438;2022-12-20T17:00:25;11.70;99.90
26081;DHT22;13991;51.174;4.438;2022-12-20T17:02:51;11.60;99.90
26081;DHT22;13991;51.174;4.438;2022-12-20T17:05:32;11.70;99.90
26081;DHT22;13991;51.174;4.438;2022-12-20T17:07:58;11.70;99.90
26081;DHT22;13991;51.174;4.438;2022-12-20T17:10:24;11.60;99.90
26081;DHT22;13991;51.174;4.438;2022-12-20T17:12:50;11.60;99.90
26081;DHT22;13991;51.174;4.438;2022-12-20T17:15:23;11.60;99.90
26081;DHT22;13991;51.174;4.438;2022-12-20T17:17:50;11.60;99.90
26081;DHT22;13991;51.174;4.438;2022-12-20T17:20:17;11.60;99.90
26081;DHT22;13991;51.174;4.438;2022-12-20T17:22:44;11.60;99.90
26081;DHT22;13991;51.174;4.438;2022-12-20T17:25:21;11.60;99.90
26081;DHT22;13991;51.174;4.438;2022-12-20T17:27:48;11.70;99.90
26081;DHT22;13991;51.174;4.438;2022-12-20T17:30:14;11.60;99.90
26081;DHT22;13991;51.174;4.438;2022-12-20T17:32:40;11.60;99.90
26081;DHT22;13991;51.174;4.438;2022-12-20T17:35:16;11.60;99.90
26081;DHT22;13991;51.174;4.438;2022-12-20T17:37:42;11.70;99.90
26081;DHT22;13991;51.174;4.438;2022-12-20T17:40:11;11.70;99.90
26081;DHT22;13991;51.174;4.438;2022-12-20T17:42:37;11.60;99.90
26081;DHT22;13991;51.174;4.438;2022-12-20T17:45:03;11.60;99.90